Time;durP1;ratioP1;P1;durP2;ratioP2;P2;SDS_P1;SDS_P2;PMS_P1;PMS_P2;Temp;Humidity;BMP_temperature;BMP_pressure;BME280_temperature;BME280_humidity;BME280_pressure;Samples;Min_cycle;Max_cycle;Signal;HPM_P1;HPM_P2
2021/04/25 00:00:14;;;;;;;1999.90;999.90;;;7.90;99.90;;;;;;5116899;28;20059;-93
2021/04/25 00:02:42;;;;;;;1999.90;999.90;;;7.90;99.90;;;;;;5104270;28;20056;-93
2021/04/25 00:05:13;;;;;;;1999.90;999.90;;;7.90;99.90;;;;;;5096278;28;20052;-94
2021/04/25 00:07:40;;;;;;;1999.90;999.90;;;8.00;99.90;;;;;;5096603;28;20347;-93
2021/04/25 00:10:10;;;;;;;1999.90;999.90;;;8.00;99.90;;;;;;5102407;28;20487;-93
2021/04/25 00:12:40;;;;;;;1999.90;999.90;;;8.00;99.90;;;;;;5116267;28;20047;-93
2021/04/25 00:15:09;;;;;;;1999.90;999.90;;;8.00;99.90;;;;;;5117388;28;20047;-94
2021/04/25 00:17:36;;;;;;;1999.90;999.90;;;8.00;99.90;;;;;;5116872;28;20105;-92
2021/04/25 00:20:04;;;;;;;1999.90;999.90;;;8.00;99.90;;;;;;5118452;28;20043;-93
2021/04/25 00:22:32;;;;;;;1999.90;999.90;;;8.00;99.90;;;;;;5108726;28;20055;-92
2021/04/25 00:25:00;;;;;;;1999.90;999.90;;;8.00;99.90;;;;;;5098601;28;20124;-93
2021/04/25 00:27:27;;;;;;;1999.90;999.90;;;8.00;99.90;;;;;;5098782;28;20118;-93
2021/04/25 00:29:54;;;;;;;1999.90;999.90;;;8.00;99.90;;;;;;5097155;28;20055;-93
2021/04/25 00:32:21;;;;;;;1999.90;999.90;;;8.00;99.90;;;;;;5096593;28;20105;-93
2021/04/25 00:34:48;;;;;;;1999.90;999.90;;;8.00;99.90;;;;;;5097012;28;20102;-94
2021/04/25 00:37:15;;;;;;;1999.90;999.90;;;8.10;99.90;;;;;;5096349;28;20048;-93
2021/04/25 00:39:45;;;;;;;1999.90;999.90;;;8.00;99.90;;;;;;5096441;28;20047;-94
2021/04/25 00:42:14;;;;;;;1999.90;999.90;;;8.10;99.90;;;;;;5096400;28;20079;-93
2021/04/25 00:44:42;;;;;;;1999.90;999.90;;;8.10;99.90;;;;;;5095999;28;20070;-93
2021/04/25 00:47:09;;;;;;;1999.90;999.90;;;8.10;99.90;;;;;;5096080;28;20052;-93
2021/04/25 00:49:36;;;;;;;1999.90;999.90;;;8.10;99.90;;;;;;5095987;28;20082;-92
2021/04/25 00:52:04;;;;;;;1999.90;999.90;;;8.00;99.90;;;;;;5114585;28;20130;-91
2021/04/25 00:54:31;;;;;;;1999.90;999.90;;;8.00;99.90;;;;;;5103338;28;20516;-90
2021/04/25 00:57:00;;;;;;;1999.90;999.90;;;7.90;99.90;;;;;;5108725;28;20564;-90
2021/04/25 00:59:27;;;;;;;1999.90;999.90;;;7.90;99.90;;;;;;5111540;28;20130;-90
2021/04/25 01:01:55;;;;;;;1999.90;999.90;;;7.80;99.90;;;;;;5100654;28;20051;-90
2021/04/25 01:04:22;;;;;;;1999.90;999.90;;;7.70;99.90;;;;;;5113919;28;20454;-90
2021/04/25 01:06:49;;;;;;;1999.90;999.90;;;7.70;99.90;;;;;;5114280;28;20086;-91
2021/04/25 01:09:16;;;;;;;1999.90;999.90;;;7.70;99.90;;;;;;5111913;28;20058;-90
2021/04/25 01:11:43;;;;;;;1999.90;999.90;;;7.60;99.90;;;;;;5114323;28;20082;-90
2021/04/25 01:14:11;;;;;;;1999.90;999.90;;;7.70;99.90;;;;;;5114683;28;20079;-90
2021/04/25 01:16:38;;;;;;;1999.90;999.90;;;7.70;99.90;;;;;;5114511;28;20075;-90
2021/04/25 01:19:05;;;;;;;1999.90;999.90;;;7.60;99.50;;;;;;5115387;28;20067;-90
2021/04/25 01:21:33;;;;;;;1999.90;999.90;;;7.60;99.10;;;;;;5121599;28;20059;-90
2021/04/25 01:24:00;;;;;;;1999.90;999.90;;;7.50;99.00;;;;;;5121976;28;20100;-90
2021/04/25 01:26:27;;;;;;;1999.90;999.90;;;7.50;98.50;;;;;;5108699;28;20085;-91
2021/04/25 01:28:54;;;;;;;1999.90;999.90;;;7.50;98.50;;;;;;5115554;28;20048;-91
2021/04/25 01:31:21;;;;;;;1999.90;999.90;;;7.40;98.70;;;;;;5115433;28;20455;-94
2021/04/25 01:33:49;;;;;;;1999.90;999.90;;;7.40;98.40;;;;;;5116137;28;20067;-94
2021/04/25 01:36:16;;;;;;;1999.90;999.90;;;7.40;98.60;;;;;;5117151;28;20135;-94
2021/04/25 01:38:44;;;;;;;1999.90;999.90;;;7.40;98.50;;;;;;5115531;28;20130;-94
2021/04/25 01:41:11;;;;;;;1999.90;999.90;;;7.50;98.10;;;;;;5115843;28;20067;-94
2021/04/25 01:43:38;;;;;;;1999.90;999.90;;;7.40;98.00;;;;;;5115703;28;20112;-94
2021/04/25 01:46:05;;;;;;;1999.90;999.90;;;7.40;98.00;;;;;;5115489;28;20561;-94
2021/04/25 01:48:32;;;;;;;1999.90;999.90;;;7.40;97.90;;;;;;5115843;28;20047;-93
2021/04/25 01:51:00;;;;;;;1999.90;999.90;;;7.50;98.20;;;;;;5115123;28;20051;-93
2021/04/25 01:53:27;;;;;;;1999.90;999.90;;;7.40;97.90;;;;;;5115516;28;20094;-93
2021/04/25 01:55:54;;;;;;;1999.90;999.90;;;7.40;98.00;;;;;;5119313;28;20047;-93
2021/04/25 01:58:22;;;;;;;1999.90;999.90;;;7.40;98.10;;;;;;5119719;28;20086;-93
2021/04/25 02:00:49;;;;;;;1999.90;999.90;;;7.40;98.00;;;;;;5119802;28;20052;-93
2021/04/25 02:03:16;;;;;;;1999.90;999.90;;;7.40;98.10;;;;;;5119567;28;20529;-93
2021/04/25 02:05:44;;;;;;;1999.90;999.90;;;7.50;98.20;;;;;;5119367;28;20448;-93
2021/04/25 02:08:13;;;;;;;1999.90;999.90;;;7.50;97.80;;;;;;5119296;28;20047;-93
2021/04/25 02:10:40;;;;;;;1999.90;999.90;;;7.40;98.00;;;;;;5119139;28;20043;-93
2021/04/25 02:13:08;;;;;;;1999.90;999.90;;;7.40;97.70;;;;;;5118990;28;20073;-93
2021/04/25 02:15:36;;;;;;;1999.90;999.90;;;7.40;97.60;;;;;;5119176;28;20398;-93
2021/04/25 02:18:03;;;;;;;1999.90;999.90;;;7.30;97.80;;;;;;5119045;28;20069;-93
2021/04/25 02:20:31;;;;;;;1999.90;999.90;;;7.40;97.80;;;;;;5118837;28;20048;-93
2021/04/25 02:22:58;;;;;;;1999.90;999.90;;;7.40;98.00;;;;;;5118642;28;20051;-92
2021/04/25 02:25:26;;;;;;;1999.90;999.90;;;7.40;97.90;;;;;;5118793;28;20048;-93
2021/04/25 02:27:53;;;;;;;1999.90;999.90;;;7.40;97.80;;;;;;5119350;28;20078;-90
2021/04/25 02:30:24;;;;;;;1999.90;999.90;;;7.40;98.00;;;;;;5117819;28;20093;-90
2021/04/25 02:32:51;;;;;;;1999.90;999.90;;;7.40;97.80;;;;;;5097665;28;20120;-90
2021/04/25 02:35:20;;;;;;;1999.90;999.90;;;7.30;97.40;;;;;;5105339;28;20134;-90
2021/04/25 02:37:48;;;;;;;1999.90;999.90;;;7.30;97.50;;;;;;5109256;28;20105;-91
2021/04/25 02:40:17;;;;;;;1999.90;999.90;;;7.30;97.70;;;;;;5118456;28;20097;-90
2021/04/25 02:42:44;;;;;;;1999.90;999.90;;;7.30;97.60;;;;;;5110071;28;20103;-91
2021/04/25 02:45:15;;;;;;;1999.90;999.90;;;7.30;97.80;;;;;;5104765;28;20052;-90
2021/04/25 02:47:45;;;;;;;1999.90;999.90;;;7.30;97.50;;;;;;5117799;28;20048;-91
2021/04/25 02:50:14;;;;;;;1999.90;999.90;;;7.30;97.30;;;;;;5113342;28;20492;-91
2021/04/25 02:52:41;;;;;;;1999.90;999.90;;;7.30;97.20;;;;;;5124732;28;20063;-91
2021/04/25 02:55:09;;;;;;;1999.90;999.90;;;7.30;97.00;;;;;;5120962;28;20043;-91
2021/04/25 02:57:36;;;;;;;1999.90;999.90;;;7.30;97.40;;;;;;5113462;28;20173;-91
2021/04/25 03:00:04;;;;;;;1999.90;999.90;;;7.30;97.20;;;;;;5110456;28;20059;-91
2021/04/25 03:02:31;;;;;;;1999.90;999.90;;;7.30;97.30;;;;;;5110944;28;20126;-92
2021/04/25 03:04:59;;;;;;;1999.90;999.90;;;7.30;97.20;;;;;;5116925;28;20100;-90
2021/04/25 03:07:26;;;;;;;1999.90;999.90;;;7.30;97.20;;;;;;5113115;28;20059;-91
2021/04/25 03:09:53;;;;;;;1999.90;999.90;;;7.30;97.20;;;;;;5113812;28;20067;-91
2021/04/25 03:12:20;;;;;;;1999.90;999.90;;;7.30;97.40;;;;;;5098235;28;20047;-91
2021/04/25 03:14:47;;;;;;;1999.90;999.90;;;7.40;97.40;;;;;;5108092;28;20514;-91
2021/04/25 03:17:15;;;;;;;1999.90;999.90;;;7.30;97.30;;;;;;5116001;28;20044;-91
2021/04/25 03:19:42;;;;;;;1999.90;999.90;;;7.30;97.30;;;;;;5116000;28;20117;-91
2021/04/25 03:22:09;;;;;;;1999.90;999.90;;;7.30;97.50;;;;;;5116965;28;20084;-91
2021/04/25 03:24:36;;;;;;;1999.90;999.90;;;7.20;97.50;;;;;;5101971;28;20074;-91
2021/04/25 03:27:04;;;;;;;1999.90;999.90;;;7.20;97.30;;;;;;5116350;28;20097;-93
2021/04/25 03:29:31;;;;;;;1999.90;999.90;;;7.20;97.60;;;;;;5102248;28;20082;-93
2021/04/25 03:31:59;;;;;;;1999.90;999.90;;;7.10;97.40;;;;;;5118876;28;20051;-92
2021/04/25 03:34:26;;;;;;;1999.90;999.90;;;7.20;97.70;;;;;;5135634;28;20061;-93
2021/04/25 03:36:53;;;;;;;1999.90;999.90;;;7.20;97.60;;;;;;5131128;28;20039;-93
2021/04/25 03:39:21;;;;;;;1999.90;999.90;;;7.20;97.50;;;;;;5117824;28;20059;-93
2021/04/25 03:41:48;;;;;;;1999.90;999.90;;;7.20;97.60;;;;;;5108594;28;20140;-93
2021/04/25 03:44:15;;;;;;;1999.90;999.90;;;7.10;97.30;;;;;;5105024;28;20051;-92
2021/04/25 03:46:43;;;;;;;1999.90;999.90;;;7.10;97.20;;;;;;5117321;28;20096;-93
2021/04/25 03:49:10;;;;;;;1999.90;999.90;;;7.10;97.60;;;;;;5117157;28;20071;-93
2021/04/25 03:51:37;;;;;;;1999.90;999.90;;;7.10;97.60;;;;;;5116650;28;20134;-93
2021/04/25 03:54:05;;;;;;;1999.90;999.90;;;7.20;97.40;;;;;;5116816;28;20461;-92
2021/04/25 03:56:33;;;;;;;1999.90;999.90;;;7.10;96.90;;;;;;5105283;28;20046;-93
2021/04/25 03:59:01;;;;;;;1999.90;999.90;;;7.10;97.00;;;;;;5111021;28;20075;-93
2021/04/25 04:01:28;;;;;;;1999.90;999.90;;;7.00;96.70;;;;;;5106099;28;20047;-93
2021/04/25 04:03:55;;;;;;;1999.90;999.90;;;7.00;96.70;;;;;;5116674;28;20558;-93
2021/04/25 04:06:22;;;;;;;1999.90;999.90;;;6.90;96.90;;;;;;5116443;28;20109;-93
2021/04/25 04:08:49;;;;;;;1999.90;999.90;;;6.80;97.00;;;;;;5116365;28;20047;-93
2021/04/25 04:11:16;;;;;;;1999.90;999.90;;;6.80;97.00;;;;;;5110994;28;20497;-93
2021/04/25 04:13:44;;;;;;;1999.90;999.90;;;6.80;97.20;;;;;;5096086;28;20082;-94
2021/04/25 04:16:11;;;;;;;1999.90;999.90;;;6.80;97.40;;;;;;5095891;28;20048;-94
2021/04/25 04:18:38;;;;;;;1999.90;999.90;;;6.80;97.30;;;;;;5095877;28;20052;-94
2021/04/25 04:21:06;;;;;;;1999.90;999.90;;;6.90;97.20;;;;;;5095841;28;20052;-93
2021/04/25 04:23:33;;;;;;;1999.90;999.90;;;6.90;97.10;;;;;;5096416;28;20135;-93
2021/04/25 04:26:00;;;;;;;1999.90;999.90;;;6.90;97.10;;;;;;5096963;28;20113;-93
2021/04/25 04:28:27;;;;;;;1999.90;999.90;;;6.90;97.20;;;;;;5115849;28;20066;-92
2021/04/25 04:30:55;;;;;;;1999.90;999.90;;;6.90;97.30;;;;;;5102700;28;20076;-91
2021/04/25 04:33:22;;;;;;;1999.90;999.90;;;6.90;97.40;;;;;;5113432;28;20135;-91
2021/04/25 04:35:49;;;;;;;1999.90;999.90;;;6.90;97.60;;;;;;5111805;28;20044;-91
2021/04/25 04:38:16;;;;;;;1999.90;999.90;;;6.90;97.70;;;;;;5111843;28;20051;-91
2021/04/25 04:40:43;;;;;;;1999.90;999.90;;;6.90;97.70;;;;;;5104446;28;20048;-91
2021/04/25 04:43:10;;;;;;;1999.90;999.90;;;7.00;97.60;;;;;;5096948;28;20067;-91
2021/04/25 04:45:37;;;;;;;1999.90;999.90;;;6.90;97.20;;;;;;5103907;28;20078;-91
2021/04/25 04:48:06;;;;;;;1999.90;999.90;;;6.90;97.00;;;;;;5107470;28;20053;-91
2021/04/25 04:50:33;;;;;;;1999.90;999.90;;;6.90;97.10;;;;;;5116006;28;20055;-91
2021/04/25 04:53:00;;;;;;;1999.90;999.90;;;6.90;97.30;;;;;;5115591;28;20478;-91
2021/04/25 04:55:27;;;;;;;1999.90;999.90;;;6.90;97.20;;;;;;5105295;28;20084;-91
2021/04/25 04:57:54;;;;;;;1999.90;999.90;;;6.90;97.20;;;;;;5113253;28;20486;-91
2021/04/25 05:00:21;;;;;;;1999.90;999.90;;;6.90;97.30;;;;;;5115299;28;20090;-90
2021/04/25 05:02:48;;;;;;;1999.90;999.90;;;7.00;97.20;;;;;;5108141;28;20066;-90
2021/04/25 05:05:16;;;;;;;1999.90;999.90;;;6.90;97.00;;;;;;5112144;28;20502;-90
2021/04/25 05:07:43;;;;;;;1999.90;999.90;;;6.90;96.80;;;;;;5116889;28;20047;-90
2021/04/25 05:10:11;;;;;;;1999.90;999.90;;;6.90;97.00;;;;;;5108718;28;20056;-91
2021/04/25 05:12:38;;;;;;;1999.90;999.90;;;6.90;96.80;;;;;;5116764;28;20048;-90
2021/04/25 05:15:07;;;;;;;1999.90;999.90;;;6.90;96.90;;;;;;5117123;28;20051;-91
2021/04/25 05:17:34;;;;;;;1999.90;999.90;;;6.90;97.00;;;;;;5110175;28;20102;-91
2021/04/25 05:20:01;;;;;;;1999.90;999.90;;;6.90;96.90;;;;;;5124857;28;20051;-89
2021/04/25 05:22:29;;;;;;;1999.90;999.90;;;6.90;97.00;;;;;;5126248;28;20035;-89
2021/04/25 05:24:56;;;;;;;1999.90;999.90;;;6.90;97.10;;;;;;5133626;28;20056;-90
2021/04/25 05:27:23;;;;;;;1999.90;999.90;;;6.90;97.20;;;;;;5127114;28;20047;-89
2021/04/25 05:29:50;;;;;;;1999.90;999.90;;;6.90;97.40;;;;;;5133613;28;20472;-90
2021/04/25 05:32:17;;;;;;;1999.90;999.90;;;6.90;97.50;;;;;;5136666;28;20039;-89
2021/04/25 05:34:45;;;;;;;1999.90;999.90;;;6.90;97.70;;;;;;5137478;28;20059;-90
2021/04/25 05:37:13;;;;;;;1999.90;999.90;;;6.90;97.10;;;;;;5124845;28;20103;-88
2021/04/25 05:39:56;;;;;;;1999.90;999.90;;;6.90;97.10;;;;;;5116588;28;20071;-94
2021/04/25 05:42:26;;;;;;;1999.90;999.90;;;6.90;97.40;;;;;;5115472;28;20059;-94
2021/04/25 05:44:57;;;;;;;1999.90;999.90;;;7.00;97.50;;;;;;5116703;28;20056;-94
2021/04/25 05:47:29;;;;;;;1999.90;999.90;;;7.00;97.30;;;;;;5112853;28;20046;-93
2021/04/25 05:49:57;;;;;;;1999.90;999.90;;;7.00;97.30;;;;;;5107288;28;20048;-93
2021/04/25 05:52:24;;;;;;;1999.90;999.90;;;7.00;97.40;;;;;;5107686;28;20052;-94
2021/04/25 05:54:57;;;;;;;1999.90;999.90;;;7.00;97.50;;;;;;5102371;28;20048;-93
2021/04/25 05:57:24;;;;;;;1999.90;999.90;;;7.00;97.50;;;;;;5100332;28;20044;-94
2021/04/25 05:59:51;;;;;;;1999.90;999.90;;;7.10;97.70;;;;;;5102443;28;20115;-94
2021/04/25 06:02:18;;;;;;;1999.90;999.90;;;7.10;97.50;;;;;;5102972;28;20462;-93
2021/04/25 06:04:45;;;;;;;1999.90;999.90;;;7.10;97.30;;;;;;5111035;28;20063;-93
2021/04/25 06:07:12;;;;;;;1999.90;999.90;;;7.10;97.30;;;;;;5117444;28;20048;-91
2021/04/25 06:09:39;;;;;;;1999.90;999.90;;;7.20;97.20;;;;;;5119062;28;20047;-91
2021/04/25 06:12:11;;;;;;;1999.90;999.90;;;7.10;97.00;;;;;;5105584;28;20447;-91
2021/04/25 06:14:38;;;;;;;1999.90;999.90;;;7.10;97.50;;;;;;5100063;28;20074;-91
2021/04/25 06:17:05;;;;;;;1999.90;999.90;;;7.20;97.40;;;;;;5099837;28;20040;-91
2021/04/25 06:19:33;;;;;;;1999.90;999.90;;;7.10;97.20;;;;;;5114449;28;20052;-91
2021/04/25 06:22:00;;;;;;;1999.90;999.90;;;7.10;97.40;;;;;;5112087;28;20164;-91
2021/04/25 06:24:27;;;;;;;1999.90;999.90;;;7.20;97.20;;;;;;5122974;28;20067;-91
2021/04/25 06:26:54;;;;;;;1999.90;999.90;;;7.20;96.90;;;;;;5129205;28;20036;-95
2021/04/25 06:29:22;;;;;;;1999.90;999.90;;;7.20;97.10;;;;;;5122608;28;20048;-94
2021/04/25 06:31:49;;;;;;;1999.90;999.90;;;7.30;97.20;;;;;;5120944;28;20047;-94
2021/04/25 06:34:16;;;;;;;1999.90;999.90;;;7.30;96.90;;;;;;5120052;28;20101;-94
2021/04/25 06:36:45;;;;;;;1999.90;999.90;;;7.30;97.00;;;;;;5120617;28;20040;-94
2021/04/25 06:39:12;;;;;;;1999.90;999.90;;;7.30;97.30;;;;;;5119113;28;20139;-94
2021/04/25 06:41:39;;;;;;;1999.90;999.90;;;7.40;97.10;;;;;;5119564;28;20052;-94
2021/04/25 06:44:07;;;;;;;1999.90;999.90;;;7.40;97.00;;;;;;5122638;28;20067;-94
2021/04/25 06:46:35;;;;;;;1999.90;999.90;;;7.40;96.90;;;;;;5104261;28;20052;-94
2021/04/25 06:49:03;;;;;;;1999.90;999.90;;;7.50;96.40;;;;;;5115670;28;20478;-93
2021/04/25 06:51:30;;;;;;;1999.90;999.90;;;7.40;96.30;;;;;;5104734;28;20541;-94
2021/04/25 06:53:57;;;;;;;1999.90;999.90;;;7.50;96.70;;;;;;5102464;28;20052;-94
2021/04/25 06:56:24;;;;;;;1999.90;999.90;;;7.50;96.50;;;;;;5100601;28;20052;-93
2021/04/25 06:58:51;;;;;;;1999.90;999.90;;;7.50;96.70;;;;;;5099720;28;20076;-94
2021/04/25 07:01:18;;;;;;;1999.90;999.90;;;7.50;96.50;;;;;;5099763;28;20048;-93
2021/04/25 07:03:48;;;;;;;1999.90;999.90;;;7.60;96.20;;;;;;5100038;28;20074;-93
2021/04/25 07:06:17;;;;;;;1999.90;999.90;;;7.50;96.00;;;;;;5100965;28;20054;-93
2021/04/25 07:08:47;;;;;;;1999.90;999.90;;;7.60;96.10;;;;;;5101341;28;20101;-94
2021/04/25 07:11:14;;;;;;;1999.90;999.90;;;7.60;96.30;;;;;;5100286;28;20138;-94
2021/04/25 07:13:41;;;;;;;1999.90;999.90;;;7.70;96.30;;;;;;5099188;28;20058;-94
2021/04/25 07:16:08;;;;;;;1999.90;999.90;;;7.70;96.20;;;;;;5097911;28;20054;-94
2021/04/25 07:18:36;;;;;;;1999.90;999.90;;;7.70;96.20;;;;;;5098928;28;20388;-93
2021/04/25 07:21:04;;;;;;;1999.90;999.90;;;7.70;96.40;;;;;;5116936;28;20135;-94
2021/04/25 07:23:32;;;;;;;1999.90;999.90;;;7.80;96.30;;;;;;5118102;28;20534;-93
2021/04/25 07:26:19;;;;;;;1999.90;999.90;;;7.80;96.20;;;;;;5121856;28;20130;-94
2021/04/25 07:28:46;;;;;;;1999.90;999.90;;;7.80;96.10;;;;;;5119375;28;20069;-94
2021/04/25 07:31:13;;;;;;;1999.90;999.90;;;7.80;96.20;;;;;;5118278;28;20077;-93
2021/04/25 07:37:29;;;;;;;1999.90;999.90;;;7.90;95.90;;;;;;5120760;28;20091;-94
2021/04/25 07:39:55;;;;;;;1999.90;999.90;;;7.90;95.80;;;;;;5123693;28;20110;-94
2021/04/25 07:42:23;;;;;;;1999.90;999.90;;;7.90;95.40;;;;;;5125217;28;20082;-93
2021/04/25 07:44:49;;;;;;;1999.90;999.90;;;7.90;95.40;;;;;;5131320;28;20078;-93
2021/04/25 07:47:17;;;;;;;1999.90;999.90;;;7.90;95.80;;;;;;5133345;28;20051;-94
2021/04/25 07:49:44;;;;;;;1999.90;999.90;;;7.90;95.90;;;;;;5132107;28;20067;-94
2021/04/25 07:52:11;;;;;;;1999.90;999.90;;;7.90;95.40;;;;;;5138172;28;20055;-93
2021/04/25 07:54:39;;;;;;;1999.90;999.90;;;7.90;96.00;;;;;;5139283;28;20048;-93
2021/04/25 07:57:06;;;;;;;1999.90;999.90;;;8.00;95.80;;;;;;5137554;28;20047;-94
2021/04/25 07:59:34;;;;;;;1999.90;999.90;;;8.10;95.40;;;;;;5138320;28;20056;-93
2021/04/25 08:02:00;;;;;;;1999.90;999.90;;;8.10;95.70;;;;;;5137201;28;20073;-94
2021/04/25 08:04:28;;;;;;;1999.90;999.90;;;8.20;96.00;;;;;;5138555;28;20063;-93
2021/04/25 08:06:56;;;;;;;1999.90;999.90;;;8.30;95.50;;;;;;5139313;28;20069;-93
2021/04/25 08:09:23;;;;;;;1999.90;999.90;;;8.30;95.50;;;;;;5137319;28;20043;-93
2021/04/25 08:11:54;;;;;;;1999.90;999.90;;;8.40;95.20;;;;;;5131613;28;20119;-93
2021/04/25 08:14:21;;;;;;;1999.90;999.90;;;8.40;95.30;;;;;;5125794;28;20055;-93
2021/04/25 08:16:48;;;;;;;1999.90;999.90;;;8.50;95.10;;;;;;5121810;28;20142;-94
2021/04/25 08:19:15;;;;;;;1999.90;999.90;;;8.60;95.60;;;;;;5125291;28;20051;-93
2021/04/25 08:21:43;;;;;;;1999.90;999.90;;;8.60;95.20;;;;;;5131785;28;20052;-93
2021/04/25 08:24:10;;;;;;;1999.90;999.90;;;8.70;95.00;;;;;;5131415;28;20071;-92
2021/04/25 08:26:38;;;;;;;1999.90;999.90;;;8.90;94.60;;;;;;5130728;28;20047;-93
2021/04/25 08:29:06;;;;;;;1999.90;999.90;;;8.90;93.80;;;;;;5132147;28;20058;-93
2021/04/25 08:31:34;;;;;;;1999.90;999.90;;;8.90;93.30;;;;;;5135523;28;20046;-93
2021/04/25 08:34:01;;;;;;;1999.90;999.90;;;8.90;93.10;;;;;;5136012;28;20086;-93
2021/04/25 08:36:28;;;;;;;1999.90;999.90;;;9.00;94.10;;;;;;5128486;28;20051;-93
2021/04/25 08:38:58;;;;;;;1999.90;999.90;;;9.10;93.90;;;;;;5121063;28;20051;-93
2021/04/25 08:44:43;;;;;;;1999.90;999.90;;;9.20;93.30;;;;;;5103727;28;20051;-92
2021/04/25 08:47:12;;;;;;;1999.90;999.90;;;9.30;92.80;;;;;;5117754;28;20058;-93
2021/04/25 08:49:42;;;;;;;1999.90;999.90;;;9.30;93.00;;;;;;5117969;28;20043;-94
2021/04/25 08:52:15;;;;;;;1999.90;999.90;;;9.30;93.00;;;;;;5117370;28;20052;-92
2021/04/25 08:54:42;;;;;;;1999.90;999.90;;;9.30;92.60;;;;;;5117526;28;20100;-93
2021/04/25 08:57:12;;;;;;;1999.90;999.90;;;9.30;92.30;;;;;;5116773;28;20375;-94
2021/04/25 08:59:39;;;;;;;1999.90;999.90;;;9.30;92.50;;;;;;5117035;28;20052;-94
2021/04/25 09:02:07;;;;;;;1999.90;999.90;;;9.50;92.10;;;;;;5116443;28;20097;-94
2021/04/25 09:04:34;;;;;;;1999.90;999.90;;;9.50;92.20;;;;;;5116667;28;20062;-94
2021/04/25 09:07:04;;;;;;;1999.90;999.90;;;9.50;92.10;;;;;;5116224;28;20047;-94
2021/04/25 09:09:46;;;;;;;1999.90;999.90;;;9.50;92.30;;;;;;5116639;28;20051;-94
2021/04/25 09:12:30;;;;;;;1999.90;999.90;;;9.60;92.60;;;;;;5118484;28;20077;-94
2021/04/25 09:14:57;;;;;;;1999.90;999.90;;;9.60;91.60;;;;;;5116461;28;20071;-94
2021/04/25 09:17:25;;;;;;;1999.90;999.90;;;9.60;91.20;;;;;;5115912;28;20044;-94
2021/04/25 09:19:55;;;;;;;1999.90;999.90;;;9.60;91.90;;;;;;5116190;28;20138;-94
2021/04/25 09:22:27;;;;;;;1999.90;999.90;;;9.60;92.00;;;;;;5125800;28;20047;-94
2021/04/25 09:25:07;;;;;;;1999.90;999.90;;;9.60;91.20;;;;;;5129520;28;20032;-93
2021/04/25 09:27:35;;;;;;;1999.90;999.90;;;9.70;91.20;;;;;;5113880;28;20052;-94
2021/04/25 09:30:04;;;;;;;1999.90;999.90;;;9.80;91.30;;;;;;5095221;28;20094;-94
2021/04/25 09:32:33;;;;;;;1999.90;999.90;;;9.90;91.90;;;;;;5095917;28;20084;-94
2021/04/25 09:35:13;;;;;;;1999.90;999.90;;;10.00;91.90;;;;;;5096159;28;20068;-94
2021/04/25 09:37:44;;;;;;;1999.90;999.90;;;10.00;91.60;;;;;;5111039;28;20039;-94
2021/04/25 09:40:14;;;;;;;1999.90;999.90;;;10.10;91.00;;;;;;5116010;28;20363;-94
2021/04/25 09:43:02;;;;;;;1999.90;999.90;;;10.00;90.70;;;;;;5116236;28;20116;-94
2021/04/25 09:45:33;;;;;;;1999.90;999.90;;;10.10;91.00;;;;;;5118470;28;20043;-94
2021/04/25 09:48:17;;;;;;;1999.90;999.90;;;10.10;91.00;;;;;;5114520;28;20047;-90
2021/04/25 09:50:45;;;;;;;1999.90;999.90;;;10.10;91.20;;;;;;5114152;28;20078;-90
2021/04/25 09:53:17;;;;;;;1999.90;999.90;;;10.10;90.90;;;;;;5113305;28;20051;-90
2021/04/25 09:55:44;;;;;;;1999.90;999.90;;;10.00;90.60;;;;;;5112486;28;20047;-91
2021/04/25 09:58:11;;;;;;;1999.90;999.90;;;10.00;91.30;;;;;;5108674;28;20051;-91
2021/04/25 10:00:40;;;;;;;1999.90;999.90;;;10.00;90.70;;;;;;5114597;28;20058;-91
2021/04/25 10:03:10;;;;;;;1999.90;999.90;;;9.90;90.30;;;;;;5114477;28;20051;-91
2021/04/25 10:05:39;;;;;;;1999.90;999.90;;;9.90;90.40;;;;;;5114338;28;20529;-90
2021/04/25 10:08:07;;;;;;;1999.90;999.90;;;10.00;90.40;;;;;;5114521;28;20043;-91
2021/04/25 10:10:34;;;;;;;1999.90;999.90;;;10.10;91.30;;;;;;5114896;28;20047;-91
2021/04/25 10:13:01;;;;;;;1999.90;999.90;;;10.10;91.10;;;;;;5113066;28;20048;-91
2021/04/25 10:15:28;;;;;;;1999.90;999.90;;;10.20;90.50;;;;;;5109765;28;20052;-91
2021/04/25 10:17:55;;;;;;;1999.90;999.90;;;10.10;88.80;;;;;;5116392;28;20039;-94
2021/04/25 10:20:24;;;;;;;1999.90;999.90;;;10.10;89.10;;;;;;5119501;28;20043;-94
2021/04/25 10:22:54;;;;;;;1999.90;999.90;;;10.10;89.80;;;;;;5119892;28;20073;-94
2021/04/25 10:25:32;;;;;;;1999.90;999.90;;;10.20;87.90;;;;;;5119566;28;20134;-93
2021/04/25 10:28:02;;;;;;;1999.90;999.90;;;10.30;88.10;;;;;;5120407;28;20071;-92
2021/04/25 10:30:32;;;;;;;1999.90;999.90;;;10.40;90.00;;;;;;5118592;28;20145;-92
2021/04/25 10:32:59;;;;;;;1999.90;999.90;;;10.40;89.20;;;;;;5119592;28;20073;-93
2021/04/25 10:35:32;;;;;;;1999.90;999.90;;;10.50;89.30;;;;;;5119243;28;20405;-92
2021/04/25 10:38:00;;;;;;;1999.90;999.90;;;10.60;89.50;;;;;;5118352;28;20059;-93
2021/04/25 10:40:33;;;;;;;1999.90;999.90;;;10.70;89.10;;;;;;5119153;28;20051;-93
2021/04/25 10:43:02;;;;;;;1999.90;999.90;;;10.60;88.20;;;;;;5111745;28;20044;-93
2021/04/25 10:45:31;;;;;;;1999.90;999.90;;;10.80;89.40;;;;;;5098620;28;20097;-93
2021/04/25 10:48:25;;;;;;;1999.90;999.90;;;10.80;88.30;;;;;;5118263;28;20102;-93
2021/04/25 10:51:15;;;;;;;1999.90;999.90;;;10.80;88.10;;;;;;5118951;28;20131;-93
2021/04/25 10:53:44;;;;;;;1999.90;999.90;;;10.80;86.60;;;;;;5119166;28;20047;-93
2021/04/25 10:56:24;;;;;;;1999.90;999.90;;;10.80;87.40;;;;;;5119806;28;20047;-93
2021/04/25 10:59:22;;;;;;;1999.90;999.90;;;10.80;87.50;;;;;;5118741;28;20097;-93
2021/04/25 11:01:50;;;;;;;1999.90;999.90;;;10.90;88.00;;;;;;5036586;28;20516;-92
2021/04/25 11:04:55;;;;;;;1999.90;999.90;;;10.80;87.00;;;;;;5101158;28;20109;-93
2021/04/25 11:07:48;;;;;;;1999.90;999.90;;;10.80;86.80;;;;;;5104888;28;20108;-93
2021/04/25 11:10:22;;;;;;;1999.90;999.90;;;10.70;86.00;;;;;;5118116;28;20482;-93
2021/04/25 11:12:50;;;;;;;1999.90;999.90;;;10.70;87.60;;;;;;5113575;28;20056;-93
2021/04/25 11:15:49;;;;;;;1999.90;999.90;;;10.80;87.30;;;;;;5100250;28;20052;-93
2021/04/25 11:18:42;;;;;;;1999.90;999.90;;;10.90;86.50;;;;;;5117658;28;20569;-93
2021/04/25 11:21:46;;;;;;;1999.90;999.90;;;10.80;85.60;;;;;;5118576;28;20127;-93
2021/04/25 11:24:28;;;;;;;1999.90;999.90;;;11.00;85.20;;;;;;5116919;28;20059;-93
2021/04/25 11:26:58;;;;;;;1999.90;999.90;;;11.10;84.20;;;;;;5117250;28;20530;-92
2021/04/25 11:30:04;;;;;;;1999.90;999.90;;;11.20;84.30;;;;;;5134699;28;20070;-92
2021/04/25 11:32:36;;;;;;;1999.90;999.90;;;11.30;83.60;;;;;;5117902;28;20143;-92
2021/04/25 11:35:12;;;;;;;1999.90;999.90;;;11.30;82.60;;;;;;5117853;28;20047;-91
2021/04/25 11:37:41;;;;;;;1999.90;999.90;;;11.40;82.20;;;;;;5113250;28;20150;-91
2021/04/25 11:40:12;;;;;;;1999.90;999.90;;;11.30;82.10;;;;;;5108332;28;20468;-92
2021/04/25 11:42:52;;;;;;;1999.90;999.90;;;11.40;82.20;;;;;;5113270;28;20048;-93
2021/04/25 11:45:25;;;;;;;1999.90;999.90;;;11.50;83.40;;;;;;5101643;28;20059;-93
2021/04/25 11:47:57;;;;;;;1999.90;999.90;;;11.60;81.70;;;;;;5113227;28;20043;-93
2021/04/25 11:50:29;;;;;;;1999.90;999.90;;;11.70;82.30;;;;;;5108480;28;20398;-94
2021/04/25 11:52:56;;;;;;;1999.90;999.90;;;11.70;81.80;;;;;;5119712;28;20440;-95
2021/04/25 11:55:25;;;;;;;1999.90;999.90;;;11.60;81.50;;;;;;5117133;28;20059;-94
2021/04/25 11:57:52;;;;;;;1999.90;999.90;;;11.70;81.80;;;;;;5118342;28;20485;-95
2021/04/25 12:00:33;;;;;;;1999.90;999.90;;;11.70;82.40;;;;;;5117157;28;20105;-94
2021/04/25 12:03:02;;;;;;;1999.90;999.90;;;11.70;80.70;;;;;;5117607;28;20519;-95
2021/04/25 12:05:31;;;;;;;1999.90;999.90;;;11.60;79.80;;;;;;5098901;28;20143;-95
2021/04/25 12:08:00;;;;;;;1999.90;999.90;;;11.60;80.90;;;;;;5117653;28;20043;-94
2021/04/25 12:10:31;;;;;;;1999.90;999.90;;;11.60;83.70;;;;;;5117294;28;20056;-94
2021/04/25 12:13:07;;;;;;;1999.90;999.90;;;11.70;83.90;;;;;;5117344;28;20097;-94
2021/04/25 12:15:50;;;;;;;1999.90;999.90;;;11.80;83.30;;;;;;5117393;28;20127;-95
2021/04/25 12:18:21;;;;;;;1999.90;999.90;;;11.90;80.50;;;;;;5117001;28;20408;-94
2021/04/25 12:20:50;;;;;;;1999.90;999.90;;;11.90;78.70;;;;;;5117130;28;20048;-95
2021/04/25 12:23:19;;;;;;;1999.90;999.90;;;12.00;77.70;;;;;;5116820;28;20436;-96